createdAt,value
2018-09-17T00:00:37.982Z,5.40
2018-09-17T00:03:11.412Z,4.20
2018-09-17T00:05:44.767Z,3.90
2018-09-17T00:08:18.144Z,3.80
2018-09-17T00:10:51.523Z,4.67
2018-09-17T00:13:24.893Z,4.47
2018-09-17T00:15:58.283Z,4.10
2018-09-17T00:18:31.679Z,4.10
2018-09-17T00:21:05.080Z,4.53
2018-09-17T00:23:38.500Z,4.30
2018-09-17T00:26:11.871Z,4.43
2018-09-17T00:28:45.243Z,4.27
2018-09-17T00:31:18.682Z,4.77
2018-09-17T00:33:52.069Z,3.70
2018-09-17T00:36:25.442Z,4.10
2018-09-17T00:38:58.895Z,3.90
2018-09-17T00:41:32.261Z,3.80
2018-09-17T00:44:05.979Z,3.90
2018-09-17T00:46:39.334Z,4.57
2018-09-17T00:49:12.824Z,4.23
2018-09-17T00:51:46.227Z,5.00
2018-09-17T00:54:20.737Z,4.53
2018-09-17T00:56:54.109Z,4.40
2018-09-17T00:59:27.533Z,3.93
2018-09-17T01:02:07.603Z,4.70
2018-09-17T01:04:41.036Z,4.50
2018-09-17T01:07:14.411Z,4.23
2018-09-17T01:09:47.803Z,4.30
2018-09-17T01:12:21.284Z,4.50
2018-09-17T01:14:54.659Z,3.70
2018-09-17T01:17:28.002Z,5.03
2018-09-17T01:20:01.425Z,4.23
2018-09-17T01:22:34.808Z,4.33
2018-09-17T01:25:08.198Z,3.47
2018-09-17T01:27:41.556Z,4.27
2018-09-17T01:30:15.003Z,3.97
2018-09-17T01:32:48.356Z,4.40
2018-09-17T01:35:21.755Z,3.47
2018-09-17T01:37:55.204Z,3.37
2018-09-17T01:40:28.630Z,3.70
2018-09-17T01:43:01.995Z,3.57
2018-09-17T01:45:35.487Z,3.63
2018-09-17T01:48:08.878Z,3.90
2018-09-17T01:50:42.257Z,3.50
2018-09-17T01:53:15.634Z,4.17
2018-09-17T01:55:49.020Z,3.70
2018-09-17T01:58:22.383Z,5.07
2018-09-17T02:00:55.775Z,4.10
2018-09-17T02:03:29.136Z,4.77
2018-09-17T02:06:02.528Z,3.63
2018-09-17T02:08:35.971Z,4.80
2018-09-17T02:11:09.337Z,4.20
2018-09-17T02:13:42.739Z,4.20
2018-09-17T02:16:16.353Z,4.37
2018-09-17T02:18:49.838Z,4.70
2018-09-17T02:21:23.253Z,3.80
2018-09-17T02:23:56.607Z,4.50
2018-09-17T02:26:30.021Z,4.10
2018-09-17T02:29:03.376Z,4.00
2018-09-17T02:31:36.778Z,3.90
2018-09-17T02:34:10.161Z,3.60
2018-09-17T02:36:43.655Z,3.20
2018-09-17T02:39:17.016Z,3.70
2018-09-17T02:41:50.677Z,4.57
2018-09-17T02:44:24.050Z,5.20
2018-09-17T02:46:57.439Z,3.73
2018-09-17T02:49:30.818Z,3.60
2018-09-17T02:52:04.254Z,3.33
2018-09-17T02:54:37.619Z,3.80
2018-09-17T02:57:10.988Z,4.30
2018-09-17T02:59:44.360Z,3.77
2018-09-17T03:02:17.748Z,3.40
2018-09-17T03:04:51.122Z,3.80
2018-09-17T03:07:24.616Z,3.70
2018-09-17T03:09:58.031Z,3.67
2018-09-17T03:12:31.443Z,3.53
2018-09-17T03:15:16.163Z,4.83
2018-09-17T03:17:49.560Z,3.70
2018-09-17T03:20:22.937Z,4.70
2018-09-17T03:22:56.315Z,3.90
2018-09-17T03:25:29.709Z,3.50
2018-09-17T03:28:03.145Z,3.57
2018-09-17T03:30:36.529Z,3.40
2018-09-17T03:33:09.945Z,3.50
2018-09-17T03:35:43.324Z,3.93
2018-09-17T03:38:48.687Z,3.63
2018-09-17T03:41:22.078Z,3.63
2018-09-17T03:43:55.516Z,3.60
2018-09-17T03:46:28.934Z,3.77
2018-09-17T03:49:02.298Z,4.43
2018-09-17T03:51:35.668Z,4.60
2018-09-17T03:54:09.064Z,3.77
2018-09-17T03:56:42.453Z,3.87
2018-09-17T03:59:15.860Z,3.73
2018-09-17T04:01:50.151Z,3.77
2018-09-17T04:04:23.532Z,4.20
2018-09-17T04:06:56.947Z,4.60
2018-09-17T04:09:30.434Z,3.80
2018-09-17T04:12:03.971Z,4.20
2018-09-17T04:14:37.341Z,3.77
2018-09-17T04:17:10.843Z,4.23
2018-09-17T04:19:44.210Z,3.83
2018-09-17T04:22:17.615Z,5.93
2018-09-17T04:24:51.022Z,5.33
2018-09-17T04:27:24.413Z,3.83
2018-09-17T04:29:57.788Z,3.80
2018-09-17T04:32:31.261Z,5.10
2018-09-17T04:35:05.783Z,4.80
2018-09-17T04:37:39.942Z,4.90
2018-09-17T04:40:13.392Z,4.30
2018-09-17T04:42:46.800Z,4.17
2018-09-17T04:45:20.198Z,5.00
2018-09-17T04:47:53.579Z,5.63
2018-09-17T04:50:26.939Z,4.83
2018-09-17T04:53:00.655Z,3.70
2018-09-17T04:55:34.116Z,4.63
2018-09-17T04:58:07.513Z,4.50
2018-09-17T05:00:40.899Z,4.30
2018-09-17T05:03:14.328Z,3.93
2018-09-17T05:05:47.683Z,3.63
2018-09-17T05:08:21.149Z,3.30
2018-09-17T05:10:54.530Z,3.50
2018-09-17T05:13:28.027Z,3.83
2018-09-17T05:16:01.298Z,3.60
2018-09-17T05:18:34.691Z,4.03
2018-09-17T05:21:08.125Z,3.50
2018-09-17T05:23:41.521Z,3.30
2018-09-17T05:26:14.877Z,3.50
2018-09-17T05:28:48.259Z,3.40
2018-09-17T05:31:21.659Z,3.43
2018-09-17T05:33:55.018Z,3.27
2018-09-17T05:36:28.538Z,3.07
2018-09-17T05:39:01.923Z,3.33
2018-09-17T05:41:35.292Z,2.97
2018-09-17T05:44:08.671Z,3.00
2018-09-17T05:46:42.023Z,3.30
2018-09-17T05:49:15.395Z,2.93
2018-09-17T05:51:48.850Z,3.10
2018-09-17T05:54:22.246Z,3.20
2018-09-17T05:56:55.618Z,3.70
2018-09-17T05:59:29.050Z,3.40
2018-09-17T06:02:02.383Z,3.60
2018-09-17T06:04:35.786Z,3.10
2018-09-17T06:07:09.251Z,3.30
2018-09-17T06:09:42.605Z,3.30
2018-09-17T06:12:15.966Z,3.77
2018-09-17T06:14:49.359Z,4.40
2018-09-17T06:17:22.766Z,3.50
2018-09-17T06:19:56.175Z,3.57
2018-09-17T06:22:29.534Z,3.30
2018-09-17T06:25:03.328Z,3.37
2018-09-17T06:27:36.737Z,3.20
2018-09-17T06:30:10.122Z,3.60
2018-09-17T06:32:43.567Z,3.20
2018-09-17T06:35:16.917Z,3.73
2018-09-17T06:37:50.319Z,3.50
2018-09-17T06:40:23.654Z,3.65
2018-09-17T06:42:57.090Z,4.03
2018-09-17T06:45:30.466Z,3.75
2018-09-17T06:48:03.906Z,3.40
2018-09-17T06:50:37.276Z,3.43
2018-09-17T06:53:10.598Z,3.47
2018-09-17T06:55:43.951Z,3.50
2018-09-17T06:58:17.274Z,3.87
2018-09-17T07:00:50.630Z,4.90
2018-09-17T07:03:24.022Z,5.62
2018-09-17T07:05:58.520Z,5.10
2018-09-17T07:08:31.855Z,3.05
2018-09-17T07:11:05.337Z,3.70
2018-09-17T07:13:38.671Z,3.65
2018-09-17T07:16:12.120Z,4.87
2018-09-17T07:18:45.477Z,4.97
2018-09-17T07:21:18.834Z,3.98
2018-09-17T07:23:52.186Z,3.67
2018-09-17T07:26:25.716Z,3.80
2018-09-17T07:28:59.452Z,4.03
2018-09-17T07:31:32.876Z,3.40
2018-09-17T07:34:06.358Z,4.17
2018-09-17T07:36:39.759Z,4.25
2018-09-17T07:39:13.117Z,4.40
2018-09-17T07:41:46.571Z,4.70
2018-09-17T07:44:19.962Z,3.70
2018-09-17T07:46:53.404Z,3.60
2018-09-17T07:49:26.763Z,3.30
2018-09-17T07:52:00.115Z,3.30
2018-09-17T07:54:33.478Z,3.40
2018-09-17T07:57:07.014Z,2.77
2018-09-17T07:59:40.471Z,2.75
2018-09-17T08:02:14.177Z,2.95
2018-09-17T08:04:47.541Z,2.70
2018-09-17T08:07:20.926Z,2.80
2018-09-17T08:09:54.354Z,2.55
2018-09-17T08:12:27.779Z,2.30
2018-09-17T08:15:01.132Z,2.50
2018-09-17T08:17:34.481Z,2.25
2018-09-17T08:20:08.145Z,2.42
2018-09-17T08:22:41.824Z,2.35
2018-09-17T08:25:15.177Z,2.50
2018-09-17T08:27:48.498Z,2.40
2018-09-17T08:30:21.846Z,2.40
2018-09-17T08:32:55.170Z,2.25
2018-09-17T08:35:28.529Z,1.92
2018-09-17T08:38:01.864Z,2.17
2018-09-17T08:40:35.222Z,2.20
2018-09-17T08:43:08.541Z,2.27
2018-09-17T08:45:41.928Z,2.10
2018-09-17T08:48:15.205Z,1.95
2018-09-17T08:50:48.567Z,1.80
2018-09-17T08:53:21.982Z,2.00
2018-09-17T08:56:04.578Z,2.30
2018-09-17T08:58:43.349Z,2.52
2018-09-17T09:01:21.060Z,2.17
2018-09-17T09:03:59.800Z,2.00
2018-09-17T09:06:38.394Z,2.50
2018-09-17T09:09:12.864Z,2.30
2018-09-17T09:11:52.147Z,2.37
2018-09-17T09:14:30.788Z,2.40
2018-09-17T09:17:04.170Z,2.60
2018-09-17T09:19:37.582Z,2.33
2018-09-17T09:22:10.944Z,2.70
2018-09-17T09:24:44.273Z,2.15
2018-09-17T09:27:17.615Z,2.40
2018-09-17T09:29:50.954Z,2.37
2018-09-17T09:32:24.358Z,2.50
2018-09-17T09:34:57.689Z,2.33
2018-09-17T09:37:31.157Z,2.30
2018-09-17T09:40:04.580Z,1.85
2018-09-17T09:42:37.951Z,2.52
2018-09-17T09:45:11.282Z,1.87
2018-09-17T09:47:45.270Z,2.12
2018-09-17T09:50:18.595Z,2.33
2018-09-17T09:52:52.017Z,2.33
2018-09-17T09:55:25.334Z,2.00
2018-09-17T09:57:58.690Z,2.27
2018-09-17T10:01:40.991Z,1.90
2018-09-17T10:04:19.778Z,2.10
2018-09-17T10:06:53.534Z,2.17
2018-09-17T10:09:32.285Z,2.10
2018-09-17T10:12:10.805Z,2.20
2018-09-17T10:14:49.440Z,2.20
2018-09-17T10:17:27.913Z,2.12
2018-09-17T10:20:01.255Z,2.65
2018-09-17T10:22:34.671Z,2.00
2018-09-17T10:25:08.002Z,2.15
2018-09-17T10:27:41.368Z,2.27
2018-09-17T10:30:14.741Z,2.35
2018-09-17T10:32:48.093Z,1.87
2018-09-17T10:35:21.425Z,2.00
2018-09-17T10:37:54.793Z,2.42
2018-09-17T10:40:28.120Z,2.00
2018-09-17T10:43:01.484Z,2.02
2018-09-17T10:45:34.870Z,2.20
2018-09-17T10:48:08.238Z,1.80
2018-09-17T10:50:41.571Z,2.12
2018-09-17T10:53:14.917Z,1.98
2018-09-17T10:55:48.242Z,2.25
2018-09-17T10:58:21.608Z,2.22
2018-09-17T11:00:54.941Z,1.85
2018-09-17T11:03:28.282Z,1.82
2018-09-17T11:06:01.623Z,1.90
2018-09-17T11:08:34.959Z,1.85
2018-09-17T11:11:08.362Z,2.22
2018-09-17T11:13:41.720Z,1.70
2018-09-17T11:16:15.054Z,2.30
2018-09-17T11:18:48.409Z,2.22
2018-09-17T11:21:21.748Z,2.05
2018-09-17T11:23:55.105Z,2.20
2018-09-17T11:26:28.421Z,2.15
2018-09-17T11:29:01.778Z,2.50
2018-09-17T11:31:35.157Z,1.92
2018-09-17T11:34:08.496Z,2.17
2018-09-17T11:36:41.831Z,1.95
2018-09-17T11:39:15.173Z,2.02
2018-09-17T11:41:48.514Z,2.12
2018-09-17T11:44:21.868Z,1.62
2018-09-17T11:46:55.188Z,1.90
2018-09-17T11:49:28.530Z,1.77
2018-09-17T11:52:01.872Z,2.08
2018-09-17T11:54:35.247Z,2.40
2018-09-17T11:57:08.572Z,1.90
2018-09-17T11:59:41.937Z,2.02
2018-09-17T12:02:20.512Z,2.10
2018-09-17T12:04:56.856Z,2.08
2018-09-17T12:07:39.695Z,2.25
2018-09-17T12:10:13.073Z,2.27
2018-09-17T12:12:46.404Z,2.05
2018-09-17T12:15:19.782Z,2.05
2018-09-17T12:17:53.133Z,2.47
2018-09-17T12:20:26.494Z,1.92
2018-09-17T12:22:59.829Z,2.12
2018-09-17T12:25:33.234Z,1.82
2018-09-17T12:28:06.924Z,2.08
2018-09-17T12:30:40.289Z,1.92
2018-09-17T12:33:13.626Z,2.10
2018-09-17T12:35:46.989Z,2.30
2018-09-17T12:38:20.793Z,2.00
2018-09-17T12:40:54.160Z,2.30
2018-09-17T12:43:27.494Z,2.12
2018-09-17T12:46:00.901Z,2.20
2018-09-17T12:48:34.214Z,2.05
2018-09-17T12:51:07.579Z,1.95
2018-09-17T12:53:40.959Z,2.02
2018-09-17T12:56:14.338Z,1.62
2018-09-17T12:58:47.703Z,2.20
2018-09-17T13:01:21.050Z,2.10
2018-09-17T13:03:54.403Z,1.85
2018-09-17T13:06:27.754Z,1.90
2018-09-17T13:09:01.123Z,2.02
2018-09-17T13:11:34.500Z,2.33
2018-09-17T13:14:07.888Z,2.33
2018-09-17T13:16:41.263Z,2.17
2018-09-17T13:19:14.594Z,2.27
2018-09-17T13:21:47.965Z,2.00
2018-09-17T13:24:21.318Z,2.20
2018-09-17T13:26:54.707Z,2.20
2018-09-17T13:29:28.036Z,1.90
2018-09-17T13:32:01.451Z,2.27
2018-09-17T13:34:34.757Z,1.72
2018-09-17T13:37:08.165Z,2.30
2018-09-17T13:39:41.536Z,1.90
2018-09-17T13:42:14.925Z,1.92
2018-09-17T13:44:48.272Z,2.52
2018-09-17T13:47:21.658Z,2.15
2018-09-17T13:49:55.059Z,1.82
2018-09-17T13:52:28.460Z,2.15
2018-09-17T13:55:01.915Z,2.33
2018-09-17T13:57:35.326Z,2.30
2018-09-17T14:00:08.704Z,1.90
2018-09-17T14:02:42.164Z,2.15
2018-09-17T14:05:15.531Z,2.00
2018-09-17T14:07:48.883Z,2.15
2018-09-17T14:10:22.331Z,2.15
2018-09-17T14:12:55.641Z,2.00
2018-09-17T14:15:28.998Z,2.17
2018-09-17T14:18:02.355Z,2.12
2018-09-17T14:20:35.709Z,2.22
2018-09-17T14:23:09.333Z,2.00
2018-09-17T14:25:42.754Z,1.87
2018-09-17T14:28:16.199Z,2.15
2018-09-17T14:30:49.690Z,2.30
2018-09-17T14:33:28.413Z,2.20
2018-09-17T14:36:02.054Z,1.95
2018-09-17T14:38:35.645Z,2.20
2018-09-17T14:41:09.101Z,2.08
2018-09-17T14:43:42.478Z,2.12
2018-09-17T14:46:16.408Z,2.22
2018-09-17T14:48:51.234Z,1.70
2018-09-17T14:51:24.764Z,2.05
2018-09-17T14:54:00.892Z,2.42
2018-09-17T14:56:34.416Z,2.08
2018-09-17T14:59:07.789Z,2.10
2018-09-17T15:01:41.205Z,2.17
2018-09-17T15:04:14.674Z,2.33
2018-09-17T15:06:48.111Z,2.37
2018-09-17T15:09:21.511Z,1.70
2018-09-17T15:11:55.054Z,2.22
2018-09-17T15:14:28.475Z,2.10
2018-09-17T15:17:01.952Z,1.80
2018-09-17T15:19:35.287Z,2.12
2018-09-17T15:22:08.682Z,1.92
2018-09-17T15:24:42.031Z,2.27
2018-09-17T15:27:15.485Z,2.15
2018-09-17T15:29:48.861Z,2.40
2018-09-17T15:32:22.377Z,1.95
2018-09-17T15:34:55.750Z,2.08
2018-09-17T15:37:29.254Z,1.82
2018-09-17T15:40:02.658Z,2.05
2018-09-17T15:42:35.974Z,1.95
2018-09-17T15:45:09.298Z,2.05
2018-09-17T15:47:42.645Z,2.33
2018-09-17T15:50:16.046Z,2.37
2018-09-17T15:52:49.392Z,2.00
2018-09-17T15:55:22.834Z,2.35
2018-09-17T15:57:56.302Z,2.17
2018-09-17T16:00:29.606Z,2.27
2018-09-17T16:03:03.194Z,2.22
2018-09-17T16:05:36.660Z,1.98
2018-09-17T16:08:11.372Z,2.27
2018-09-17T16:10:56.350Z,2.00
2018-09-17T16:13:30.109Z,2.22
2018-09-17T16:16:03.485Z,2.15
2018-09-17T16:18:36.834Z,2.00
2018-09-17T16:21:10.217Z,1.90
2018-09-17T16:23:43.543Z,2.20
2018-09-17T16:26:17.383Z,2.50
2018-09-17T16:28:50.762Z,2.12
2018-09-17T16:31:24.210Z,1.90
2018-09-17T16:33:58.154Z,2.10
2018-09-17T16:36:31.489Z,2.17
2018-09-17T16:39:07.355Z,2.22
2018-09-17T16:41:40.688Z,1.82
2018-09-17T16:44:14.051Z,2.33
2018-09-17T16:46:47.474Z,2.10
2018-09-17T16:49:21.027Z,2.45
2018-09-17T16:51:54.363Z,2.02
2018-09-17T16:54:27.710Z,2.10
2018-09-17T16:57:01.114Z,1.98
2018-09-17T16:59:34.492Z,2.00
2018-09-17T17:02:07.821Z,2.10
2018-09-17T17:04:41.204Z,2.10
2018-09-17T17:07:14.563Z,1.82
2018-09-17T17:09:47.921Z,2.15
2018-09-17T17:12:21.504Z,1.98
2018-09-17T17:14:54.856Z,2.20
2018-09-17T17:17:28.177Z,1.85
2018-09-17T17:20:01.518Z,2.20
2018-09-17T17:22:35.724Z,2.37
2018-09-17T17:25:09.103Z,2.22
2018-09-17T17:27:42.642Z,2.20
2018-09-17T17:30:16.245Z,2.35
2018-09-17T17:32:50.097Z,2.33
2018-09-17T17:35:23.814Z,2.90
2018-09-17T17:37:57.685Z,2.70
2018-09-17T17:40:31.307Z,3.40
2018-09-17T17:43:04.981Z,3.50
2018-09-17T17:45:38.551Z,2.85
2018-09-17T17:48:11.882Z,2.80
2018-09-17T17:50:45.498Z,3.00
2018-09-17T17:53:19.227Z,2.20
2018-09-17T17:55:53.102Z,3.05
2018-09-17T17:58:26.724Z,3.30
2018-09-17T18:01:00.455Z,3.50
2018-09-17T18:03:34.022Z,3.80
2018-09-17T18:06:07.398Z,2.77
2018-09-17T18:08:41.146Z,3.15
2018-09-17T18:11:14.881Z,3.37
2018-09-17T18:13:49.133Z,3.27
2018-09-17T18:16:26.951Z,3.02
2018-09-17T18:19:01.888Z,3.60
2018-09-17T18:21:35.571Z,3.27
2018-09-17T18:24:09.121Z,3.52
2018-09-17T18:26:42.654Z,2.72
2018-09-17T18:29:16.320Z,2.37
2018-09-17T18:31:49.703Z,2.10
2018-09-17T18:34:23.237Z,2.55
2018-09-17T18:36:56.847Z,2.25
2018-09-17T18:39:30.817Z,1.87
2018-09-17T18:42:04.189Z,2.20
2018-09-17T18:44:38.101Z,2.17
2018-09-17T18:47:11.462Z,2.20
2018-09-17T18:49:45.230Z,2.55
2018-09-17T18:52:18.660Z,2.50
2018-09-17T18:54:52.347Z,2.17
2018-09-17T18:57:26.057Z,2.35
2018-09-17T18:59:59.452Z,2.50
2018-09-17T19:02:32.971Z,2.72
2018-09-17T19:05:06.463Z,2.40
2018-09-17T19:07:40.896Z,2.15
2018-09-17T19:10:14.348Z,2.65
2018-09-17T19:12:47.966Z,3.25
2018-09-17T19:15:26.711Z,3.50
2018-09-17T19:18:05.390Z,3.00
2018-09-17T19:20:38.979Z,3.33
2018-09-17T19:23:17.386Z,3.25
2018-09-17T19:25:50.886Z,2.70
2018-09-17T19:28:29.378Z,3.05
2018-09-17T19:31:02.779Z,2.90
2018-09-17T19:33:36.108Z,3.08
2018-09-17T19:36:09.848Z,2.95
2018-09-17T19:38:48.475Z,3.30
2018-09-17T19:41:22.308Z,2.92
2018-09-17T19:43:56.384Z,3.17
2018-09-17T19:46:29.694Z,3.22
2018-09-17T19:49:03.568Z,3.40
2018-09-17T19:51:42.251Z,3.20
2018-09-17T19:54:15.593Z,3.20
2018-09-17T19:56:48.934Z,3.67
2018-09-17T19:59:27.538Z,2.90
2018-09-17T20:02:00.885Z,3.30
2018-09-17T20:04:39.714Z,3.50
2018-09-17T20:07:13.030Z,3.20
2018-09-17T20:12:44.551Z,3.55
2018-09-17T20:15:17.873Z,3.40
2018-09-17T20:17:51.217Z,3.60
2018-09-17T20:20:24.598Z,3.08
2018-09-17T20:22:57.992Z,3.30
2018-09-17T20:25:31.406Z,2.92
2018-09-17T20:28:04.730Z,2.90
2018-09-17T20:30:38.083Z,3.27
2018-09-17T20:33:11.441Z,3.05
2018-09-17T20:35:44.818Z,3.40
2018-09-17T20:38:18.173Z,3.45
2018-09-17T20:40:51.550Z,4.53
2018-09-17T20:43:24.882Z,6.90
2018-09-17T20:45:58.229Z,6.87
2018-09-17T20:48:31.604Z,18.32
2018-09-17T20:51:04.927Z,17.12
2018-09-17T20:53:38.252Z,14.47
2018-09-17T20:56:11.642Z,8.85
2018-09-17T20:58:44.980Z,4.83
2018-09-17T21:01:18.437Z,5.45
2018-09-17T21:03:51.763Z,4.95
2018-09-17T21:06:25.177Z,4.50
2018-09-17T21:08:58.507Z,4.70
2018-09-17T21:11:31.891Z,4.33
2018-09-17T21:14:05.622Z,3.77
2018-09-17T21:16:39.362Z,4.05
2018-09-17T21:19:12.685Z,3.95
2018-09-17T21:21:46.072Z,4.03
2018-09-17T21:24:19.367Z,3.75
2018-09-17T21:26:52.745Z,3.80
2018-09-17T21:29:26.071Z,3.95
2018-09-17T21:31:59.426Z,4.10
2018-09-17T21:34:32.802Z,3.62
2018-09-17T21:37:06.300Z,3.40
2018-09-17T21:39:39.581Z,3.20
2018-09-17T21:42:12.946Z,3.47
2018-09-17T21:44:46.341Z,3.15
2018-09-17T21:47:19.761Z,3.30
2018-09-17T21:49:53.091Z,3.75
2018-09-17T21:52:26.440Z,3.95
2018-09-17T21:54:59.776Z,4.60
2018-09-17T21:57:33.114Z,4.00
2018-09-17T22:00:06.489Z,4.00
2018-09-17T22:02:39.843Z,4.70
2018-09-17T22:05:13.221Z,4.05
2018-09-17T22:07:46.602Z,3.95
2018-09-17T22:10:19.954Z,4.28
2018-09-17T22:12:53.297Z,3.27
2018-09-17T22:15:26.614Z,4.15
2018-09-17T22:17:59.981Z,4.00
2018-09-17T22:20:33.559Z,4.40
2018-09-17T22:23:06.953Z,4.42
2018-09-17T22:25:40.280Z,4.90
2018-09-17T22:28:13.657Z,5.25
2018-09-17T22:30:46.989Z,8.75
2018-09-17T22:33:20.401Z,7.80
2018-09-17T22:35:53.724Z,5.33
2018-09-17T22:38:27.084Z,4.65
2018-09-17T22:41:00.419Z,4.00
2018-09-17T22:43:33.798Z,4.25
2018-09-17T22:46:07.143Z,3.62
2018-09-17T22:48:40.506Z,4.33
2018-09-17T22:51:13.848Z,4.10
2018-09-17T22:53:47.196Z,4.20
2018-09-17T22:56:20.542Z,4.20
2018-09-17T22:58:53.885Z,3.72
2018-09-17T23:01:27.255Z,3.90
2018-09-17T23:04:00.593Z,3.42
2018-09-17T23:06:33.928Z,3.37
2018-09-17T23:09:08.921Z,5.30
2018-09-17T23:11:42.245Z,5.42
2018-09-17T23:14:15.577Z,5.65
2018-09-17T23:16:48.878Z,4.70
2018-09-17T23:19:22.738Z,3.62
2018-09-17T23:21:56.075Z,3.90
2018-09-17T23:24:29.401Z,4.03
2018-09-17T23:27:02.726Z,4.12
2018-09-17T23:29:36.045Z,4.87
2018-09-17T23:32:09.382Z,4.90
2018-09-17T23:34:42.787Z,5.80
2018-09-17T23:37:16.189Z,4.90
2018-09-17T23:39:49.513Z,4.60
2018-09-17T23:42:22.809Z,4.60
2018-09-17T23:44:56.129Z,4.57
2018-09-17T23:47:29.442Z,5.00
2018-09-17T23:50:02.763Z,6.03
2018-09-17T23:52:36.058Z,4.83
2018-09-17T23:55:09.431Z,5.90
2018-09-17T23:57:42.740Z,5.10
